sensor_id;sensor_type;location;lat;lon;timestamp;P1;durP1;ratioP1;P2;durP2;ratioP2
17947;SDS011;9099;47.958;11.366;2022-08-14T00:02:10;2.10;;;2.00;;
17947;SDS011;9099;47.958;11.366;2022-08-14T00:04:37;2.42;;;2.17;;
17947;SDS011;9099;47.958;11.366;2022-08-14T00:07:05;2.40;;;2.30;;
17947;SDS011;9099;47.958;11.366;2022-08-14T00:09:33;2.67;;;2.58;;
17947;SDS011;9099;47.958;11.366;2022-08-14T00:12:00;2.20;;;2.10;;
17947;SDS011;9099;47.958;11.366;2022-08-14T00:14:29;2.40;;;2.30;;
17947;SDS011;9099;47.958;11.366;2022-08-14T00:16:57;2.45;;;2.22;;
17947;SDS011;9099;47.958;11.366;2022-08-14T00:19:23;2.30;;;2.20;;
17947;SDS011;9099;47.958;11.366;2022-08-14T00:21:51;2.50;;;2.40;;
17947;SDS011;9099;47.958;11.366;2022-08-14T00:24:19;2.58;;;2.42;;
17947;SDS011;9099;47.958;11.366;2022-08-14T00:26:47;2.55;;;2.40;;
17947;SDS011;9099;47.958;11.366;2022-08-14T00:29:14;2.63;;;2.42;;
17947;SDS011;9099;47.958;11.366;2022-08-14T00:31:41;2.10;;;2.00;;
17947;SDS011;9099;47.958;11.366;2022-08-14T00:34:08;2.42;;;2.22;;
17947;SDS011;9099;47.958;11.366;2022-08-14T00:36:35;2.42;;;2.22;;
17947;SDS011;9099;47.958;11.366;2022-08-14T00:39:02;2.42;;;2.33;;
17947;SDS011;9099;47.958;11.366;2022-08-14T00:41:31;2.20;;;2.10;;
17947;SDS011;9099;47.958;11.366;2022-08-14T00:43:59;2.20;;;2.10;;
17947;SDS011;9099;47.958;11.366;2022-08-14T00:46:26;2.58;;;2.47;;
17947;SDS011;9099;47.958;11.366;2022-08-14T00:48:53;2.30;;;2.20;;
17947;SDS011;9099;47.958;11.366;2022-08-14T00:51:20;2.10;;;2.00;;
17947;SDS011;9099;47.958;11.366;2022-08-14T00:53:47;2.33;;;2.22;;
17947;SDS011;9099;47.958;11.366;2022-08-14T00:56:15;2.00;;;1.90;;
17947;SDS011;9099;47.958;11.366;2022-08-14T00:58:44;2.80;;;2.10;;
17947;SDS011;9099;47.958;11.366;2022-08-14T01:01:11;2.22;;;2.13;;
17947;SDS011;9099;47.958;11.366;2022-08-14T01:03:38;2.33;;;2.22;;
17947;SDS011;9099;47.958;11.366;2022-08-14T01:06:07;2.28;;;2.17;;
17947;SDS011;9099;47.958;11.366;2022-08-14T01:08:36;2.42;;;2.22;;
17947;SDS011;9099;47.958;11.366;2022-08-14T01:11:04;2.30;;;2.20;;
17947;SDS011;9099;47.958;11.366;2022-08-14T01:13:32;2.25;;;2.15;;
17947;SDS011;9099;47.958;11.366;2022-08-14T01:16:04;2.80;;;2.10;;
17947;SDS011;9099;47.958;11.366;2022-08-14T01:18:32;2.38;;;2.28;;
17947;SDS011;9099;47.958;11.366;2022-08-14T01:23:51;2.20;;;2.10;;
17947;SDS011;9099;47.958;11.366;2022-08-14T01:26:19;2.30;;;2.20;;
17947;SDS011;9099;47.958;11.366;2022-08-14T01:28:47;2.78;;;2.60;;
17947;SDS011;9099;47.958;11.366;2022-08-14T01:31:20;2.72;;;2.60;;
17947;SDS011;9099;47.958;11.366;2022-08-14T01:33:49;2.47;;;2.38;;
17947;SDS011;9099;47.958;11.366;2022-08-14T01:36:19;2.55;;;2.45;;
17947;SDS011;9099;47.958;11.366;2022-08-14T01:38:47;2.60;;;2.40;;
17947;SDS011;9099;47.958;11.366;2022-08-14T01:41:16;2.10;;;2.00;;
17947;SDS011;9099;47.958;11.366;2022-08-14T01:43:45;2.22;;;2.13;;
17947;SDS011;9099;47.958;11.366;2022-08-14T01:46:14;2.25;;;2.15;;
17947;SDS011;9099;47.958;11.366;2022-08-14T01:48:43;2.17;;;2.08;;
17947;SDS011;9099;47.958;11.366;2022-08-14T01:51:11;2.60;;;2.40;;
17947;SDS011;9099;47.958;11.366;2022-08-14T01:53:41;2.40;;;2.30;;
17947;SDS011;9099;47.958;11.366;2022-08-14T01:56:11;2.60;;;2.50;;
17947;SDS011;9099;47.958;11.366;2022-08-14T01:58:42;2.85;;;2.70;;
17947;SDS011;9099;47.958;11.366;2022-08-14T02:01:12;2.47;;;2.33;;
17947;SDS011;9099;47.958;11.366;2022-08-14T02:03:40;2.35;;;2.22;;
17947;SDS011;9099;47.958;11.366;2022-08-14T02:06:07;2.47;;;2.28;;
17947;SDS011;9099;47.958;11.366;2022-08-14T02:08:36;2.13;;;2.03;;
17947;SDS011;9099;47.958;11.366;2022-08-14T02:11:04;2.40;;;2.28;;
17947;SDS011;9099;47.958;11.366;2022-08-14T02:13:49;2.50;;;2.40;;
17947;SDS011;9099;47.958;11.366;2022-08-14T02:16:24;2.30;;;2.20;;
17947;SDS011;9099;47.958;11.366;2022-08-14T02:18:54;2.65;;;2.53;;
17947;SDS011;9099;47.958;11.366;2022-08-14T02:21:22;2.13;;;2.03;;
17947;SDS011;9099;47.958;11.366;2022-08-14T02:23:52;2.88;;;2.67;;
17947;SDS011;9099;47.958;11.366;2022-08-14T02:26:21;2.60;;;2.40;;
17947;SDS011;9099;47.958;11.366;2022-08-14T02:28:51;2.30;;;2.20;;
17947;SDS011;9099;47.958;11.366;2022-08-14T02:31:19;2.33;;;2.22;;
17947;SDS011;9099;47.958;11.366;2022-08-14T02:33:46;2.10;;;2.00;;
17947;SDS011;9099;47.958;11.366;2022-08-14T02:36:13;2.30;;;2.20;;
17947;SDS011;9099;47.958;11.366;2022-08-14T02:38:41;2.25;;;2.15;;
17947;SDS011;9099;47.958;11.366;2022-08-14T02:41:09;2.40;;;2.13;;
17947;SDS011;9099;47.958;11.366;2022-08-14T02:43:38;2.08;;;1.98;;
17947;SDS011;9099;47.958;11.366;2022-08-14T02:46:07;2.40;;;2.20;;
17947;SDS011;9099;47.958;11.366;2022-08-14T02:48:36;2.38;;;2.28;;
17947;SDS011;9099;47.958;11.366;2022-08-14T02:51:05;2.10;;;2.00;;
17947;SDS011;9099;47.958;11.366;2022-08-14T02:53:34;2.25;;;2.15;;
17947;SDS011;9099;47.958;11.366;2022-08-14T02:56:03;2.22;;;2.13;;
17947;SDS011;9099;47.958;11.366;2022-08-14T02:58:31;2.38;;;2.17;;
17947;SDS011;9099;47.958;11.366;2022-08-14T03:01:02;2.10;;;2.00;;
17947;SDS011;9099;47.958;11.366;2022-08-14T03:03:31;2.20;;;2.10;;
17947;SDS011;9099;47.958;11.366;2022-08-14T03:05:58;2.38;;;2.20;;
17947;SDS011;9099;47.958;11.366;2022-08-14T03:08:25;2.20;;;2.10;;
17947;SDS011;9099;47.958;11.366;2022-08-14T03:10:55;2.35;;;2.25;;
17947;SDS011;9099;47.958;11.366;2022-08-14T03:13:23;2.38;;;2.17;;
17947;SDS011;9099;47.958;11.366;2022-08-14T03:15:51;2.53;;;2.33;;
17947;SDS011;9099;47.958;11.366;2022-08-14T03:18:19;2.30;;;2.20;;
17947;SDS011;9099;47.958;11.366;2022-08-14T03:20:49;2.38;;;2.17;;
17947;SDS011;9099;47.958;11.366;2022-08-14T03:23:17;2.25;;;2.15;;
17947;SDS011;9099;47.958;11.366;2022-08-14T03:25:45;2.38;;;2.28;;
17947;SDS011;9099;47.958;11.366;2022-08-14T03:28:13;2.33;;;2.13;;
17947;SDS011;9099;47.958;11.366;2022-08-14T03:30:40;2.10;;;2.00;;
17947;SDS011;9099;47.958;11.366;2022-08-14T03:33:08;2.50;;;2.30;;
17947;SDS011;9099;47.958;11.366;2022-08-14T03:35:37;2.42;;;2.22;;
17947;SDS011;9099;47.958;11.366;2022-08-14T03:38:07;2.10;;;2.00;;
17947;SDS011;9099;47.958;11.366;2022-08-14T03:40:35;2.33;;;2.15;;
17947;SDS011;9099;47.958;11.366;2022-08-14T03:43:03;2.10;;;2.00;;
17947;SDS011;9099;47.958;11.366;2022-08-14T03:45:31;2.15;;;2.05;;
17947;SDS011;9099;47.958;11.366;2022-08-14T03:48:00;2.92;;;2.30;;
17947;SDS011;9099;47.958;11.366;2022-08-14T03:50:28;3.08;;;2.30;;
17947;SDS011;9099;47.958;11.366;2022-08-14T03:52:58;2.40;;;2.28;;
17947;SDS011;9099;47.958;11.366;2022-08-14T03:55:27;2.70;;;2.35;;
17947;SDS011;9099;47.958;11.366;2022-08-14T03:57:54;2.20;;;2.10;;
17947;SDS011;9099;47.958;11.366;2022-08-14T04:00:21;2.00;;;1.90;;
17947;SDS011;9099;47.958;11.366;2022-08-14T04:02:49;2.13;;;1.88;;
17947;SDS011;9099;47.958;11.366;2022-08-14T04:05:16;2.30;;;2.20;;
17947;SDS011;9099;47.958;11.366;2022-08-14T04:07:43;2.17;;;2.08;;
17947;SDS011;9099;47.958;11.366;2022-08-14T04:10:10;2.17;;;2.08;;
17947;SDS011;9099;47.958;11.366;2022-08-14T04:12:39;2.38;;;2.17;;
17947;SDS011;9099;47.958;11.366;2022-08-14T04:15:07;2.75;;;2.55;;
17947;SDS011;9099;47.958;11.366;2022-08-14T04:17:34;2.13;;;2.03;;
17947;SDS011;9099;47.958;11.366;2022-08-14T04:20:02;2.47;;;2.28;;
17947;SDS011;9099;47.958;11.366;2022-08-14T04:22:31;2.30;;;2.20;;
17947;SDS011;9099;47.958;11.366;2022-08-14T04:24:59;2.13;;;2.00;;
17947;SDS011;9099;47.958;11.366;2022-08-14T04:27:26;2.55;;;2.30;;
17947;SDS011;9099;47.958;11.366;2022-08-14T04:29:55;2.35;;;2.25;;
17947;SDS011;9099;47.958;11.366;2022-08-14T04:32:22;2.30;;;2.20;;
17947;SDS011;9099;47.958;11.366;2022-08-14T04:34:52;2.30;;;2.20;;
17947;SDS011;9099;47.958;11.366;2022-08-14T04:37:20;2.20;;;2.10;;
17947;SDS011;9099;47.958;11.366;2022-08-14T04:40:05;2.15;;;2.05;;
17947;SDS011;9099;47.958;11.366;2022-08-14T04:42:51;2.20;;;2.10;;
17947;SDS011;9099;47.958;11.366;2022-08-14T04:45:37;2.15;;;2.05;;
17947;SDS011;9099;47.958;11.366;2022-08-14T04:48:06;2.05;;;1.95;;
17947;SDS011;9099;47.958;11.366;2022-08-14T04:50:40;2.42;;;2.33;;
17947;SDS011;9099;47.958;11.366;2022-08-14T04:53:11;2.40;;;2.30;;
17947;SDS011;9099;47.958;11.366;2022-08-14T04:55:41;2.10;;;2.00;;
17947;SDS011;9099;47.958;11.366;2022-08-14T04:58:11;2.40;;;2.30;;
17947;SDS011;9099;47.958;11.366;2022-08-14T05:00:40;2.45;;;2.35;;
17947;SDS011;9099;47.958;11.366;2022-08-14T05:03:07;2.30;;;2.20;;
17947;SDS011;9099;47.958;11.366;2022-08-14T05:05:35;2.03;;;1.92;;
17947;SDS011;9099;47.958;11.366;2022-08-14T05:08:03;2.45;;;2.25;;
17947;SDS011;9099;47.958;11.366;2022-08-14T05:10:36;2.17;;;2.05;;
17947;SDS011;9099;47.958;11.366;2022-08-14T05:13:05;2.25;;;2.15;;
17947;SDS011;9099;47.958;11.366;2022-08-14T05:15:32;2.72;;;2.42;;
17947;SDS011;9099;47.958;11.366;2022-08-14T05:18:02;2.50;;;2.40;;
17947;SDS011;9099;47.958;11.366;2022-08-14T05:20:30;1.90;;;1.80;;
17947;SDS011;9099;47.958;11.366;2022-08-14T05:22:57;2.33;;;2.22;;
17947;SDS011;9099;47.958;11.366;2022-08-14T05:25:24;2.42;;;2.30;;
17947;SDS011;9099;47.958;11.366;2022-08-14T05:27:51;2.30;;;2.20;;
17947;SDS011;9099;47.958;11.366;2022-08-14T05:30:20;2.50;;;2.40;;
17947;SDS011;9099;47.958;11.366;2022-08-14T05:32:47;2.40;;;2.20;;
17947;SDS011;9099;47.958;11.366;2022-08-14T05:35:15;2.40;;;2.30;;
17947;SDS011;9099;47.958;11.366;2022-08-14T05:37:43;2.35;;;2.15;;
17947;SDS011;9099;47.958;11.366;2022-08-14T05:40:10;2.10;;;2.00;;
17947;SDS011;9099;47.958;11.366;2022-08-14T05:42:37;2.20;;;2.10;;
17947;SDS011;9099;47.958;11.366;2022-08-14T05:45:05;2.42;;;2.33;;
17947;SDS011;9099;47.958;11.366;2022-08-14T05:47:37;2.35;;;2.15;;
17947;SDS011;9099;47.958;11.366;2022-08-14T05:50:09;2.45;;;2.25;;
17947;SDS011;9099;47.958;11.366;2022-08-14T05:52:38;2.15;;;2.05;;
17947;SDS011;9099;47.958;11.366;2022-08-14T05:55:06;2.30;;;2.20;;
17947;SDS011;9099;47.958;11.366;2022-08-14T05:57:44;2.47;;;2.28;;
17947;SDS011;9099;47.958;11.366;2022-08-14T06:00:13;2.15;;;2.03;;
17947;SDS011;9099;47.958;11.366;2022-08-14T06:02:41;4.22;;;2.28;;
17947;SDS011;9099;47.958;11.366;2022-08-14T06:05:08;2.10;;;2.00;;
17947;SDS011;9099;47.958;11.366;2022-08-14T06:07:35;1.90;;;1.80;;
17947;SDS011;9099;47.958;11.366;2022-08-14T06:10:05;2.05;;;1.90;;
17947;SDS011;9099;47.958;11.366;2022-08-14T06:12:33;2.28;;;2.17;;
17947;SDS011;9099;47.958;11.366;2022-08-14T06:15:00;2.00;;;1.90;;
17947;SDS011;9099;47.958;11.366;2022-08-14T06:17:28;2.22;;;2.10;;
17947;SDS011;9099;47.958;11.366;2022-08-14T06:19:55;2.08;;;1.98;;
17947;SDS011;9099;47.958;11.366;2022-08-14T06:22:22;2.75;;;1.85;;
17947;SDS011;9099;47.958;11.366;2022-08-14T06:24:49;2.00;;;1.90;;
17947;SDS011;9099;47.958;11.366;2022-08-14T06:27:17;2.15;;;2.05;;
17947;SDS011;9099;47.958;11.366;2022-08-14T06:29:44;2.00;;;1.83;;
17947;SDS011;9099;47.958;11.366;2022-08-14T06:32:11;2.00;;;1.90;;
17947;SDS011;9099;47.958;11.366;2022-08-14T06:34:38;1.80;;;1.70;;
17947;SDS011;9099;47.958;11.366;2022-08-14T06:37:05;2.55;;;2.15;;
17947;SDS011;9099;47.958;11.366;2022-08-14T06:39:32;2.22;;;1.90;;
17947;SDS011;9099;47.958;11.366;2022-08-14T06:41:59;1.90;;;1.80;;
17947;SDS011;9099;47.958;11.366;2022-08-14T06:44:28;2.50;;;2.30;;
17947;SDS011;9099;47.958;11.366;2022-08-14T06:46:56;2.47;;;2.20;;
17947;SDS011;9099;47.958;11.366;2022-08-14T06:49:24;2.20;;;2.10;;
17947;SDS011;9099;47.958;11.366;2022-08-14T06:51:52;2.38;;;2.20;;
17947;SDS011;9099;47.958;11.366;2022-08-14T06:54:19;1.90;;;1.80;;
17947;SDS011;9099;47.958;11.366;2022-08-14T06:56:45;2.90;;;2.20;;
17947;SDS011;9099;47.958;11.366;2022-08-14T06:59:13;1.92;;;1.85;;
17947;SDS011;9099;47.958;11.366;2022-08-14T07:01:42;2.25;;;2.08;;
17947;SDS011;9099;47.958;11.366;2022-08-14T07:04:26;3.90;;;1.88;;
17947;SDS011;9099;47.958;11.366;2022-08-14T07:07:10;2.45;;;2.00;;
17947;SDS011;9099;47.958;11.366;2022-08-14T07:09:37;2.00;;;1.90;;
17947;SDS011;9099;47.958;11.366;2022-08-14T07:12:04;2.50;;;1.92;;
17947;SDS011;9099;47.958;11.366;2022-08-14T07:14:33;2.08;;;1.98;;
17947;SDS011;9099;47.958;11.366;2022-08-14T07:17:01;2.10;;;2.00;;
17947;SDS011;9099;47.958;11.366;2022-08-14T07:19:28;1.80;;;1.70;;
17947;SDS011;9099;47.958;11.366;2022-08-14T07:21:55;2.20;;;2.03;;
17947;SDS011;9099;47.958;11.366;2022-08-14T07:24:23;2.13;;;2.03;;
17947;SDS011;9099;47.958;11.366;2022-08-14T07:26:50;2.03;;;1.88;;
17947;SDS011;9099;47.958;11.366;2022-08-14T07:29:17;2.22;;;2.03;;
17947;SDS011;9099;47.958;11.366;2022-08-14T07:31:46;3.38;;;2.25;;
17947;SDS011;9099;47.958;11.366;2022-08-14T07:34:14;1.90;;;1.80;;
17947;SDS011;9099;47.958;11.366;2022-08-14T07:36:41;2.00;;;1.90;;
17947;SDS011;9099;47.958;11.366;2022-08-14T07:39:08;2.17;;;2.08;;
17947;SDS011;9099;47.958;11.366;2022-08-14T07:41:35;2.03;;;1.90;;
17947;SDS011;9099;47.958;11.366;2022-08-14T07:44:02;2.05;;;1.95;;
17947;SDS011;9099;47.958;11.366;2022-08-14T07:46:29;2.00;;;1.90;;
17947;SDS011;9099;47.958;11.366;2022-08-14T07:48:57;1.88;;;1.77;;
17947;SDS011;9099;47.958;11.366;2022-08-14T07:51:25;1.88;;;1.75;;
17947;SDS011;9099;47.958;11.366;2022-08-14T07:53:52;2.30;;;2.10;;
17947;SDS011;9099;47.958;11.366;2022-08-14T07:56:19;1.88;;;1.77;;
17947;SDS011;9099;47.958;11.366;2022-08-14T07:58:46;2.20;;;2.10;;
17947;SDS011;9099;47.958;11.366;2022-08-14T08:01:13;1.90;;;1.80;;
17947;SDS011;9099;47.958;11.366;2022-08-14T08:03:43;1.92;;;1.80;;
17947;SDS011;9099;47.958;11.366;2022-08-14T08:06:13;1.92;;;1.83;;
17947;SDS011;9099;47.958;11.366;2022-08-14T08:08:43;1.80;;;1.80;;
17947;SDS011;9099;47.958;11.366;2022-08-14T08:11:13;2.00;;;1.90;;
17947;SDS011;9099;47.958;11.366;2022-08-14T08:13:43;2.15;;;1.95;;
17947;SDS011;9099;47.958;11.366;2022-08-14T08:16:10;2.42;;;2.30;;
17947;SDS011;9099;47.958;11.366;2022-08-14T08:18:38;1.77;;;1.67;;
17947;SDS011;9099;47.958;11.366;2022-08-14T08:21:05;2.25;;;1.83;;
17947;SDS011;9099;47.958;11.366;2022-08-14T08:23:32;2.33;;;2.22;;
17947;SDS011;9099;47.958;11.366;2022-08-14T08:26:00;2.10;;;2.00;;
17947;SDS011;9099;47.958;11.366;2022-08-14T08:28:28;2.10;;;2.00;;
17947;SDS011;9099;47.958;11.366;2022-08-14T08:30:56;2.00;;;1.90;;
17947;SDS011;9099;47.958;11.366;2022-08-14T08:33:26;2.08;;;1.88;;
17947;SDS011;9099;47.958;11.366;2022-08-14T08:35:56;2.10;;;1.90;;
17947;SDS011;9099;47.958;11.366;2022-08-14T08:38:24;1.77;;;1.70;;
17947;SDS011;9099;47.958;11.366;2022-08-14T08:40:53;1.90;;;1.80;;
17947;SDS011;9099;47.958;11.366;2022-08-14T08:43:23;1.80;;;1.70;;
17947;SDS011;9099;47.958;11.366;2022-08-14T08:45:54;2.90;;;1.65;;
17947;SDS011;9099;47.958;11.366;2022-08-14T08:48:25;1.75;;;1.65;;
17947;SDS011;9099;47.958;11.366;2022-08-14T08:50:54;1.60;;;1.50;;
17947;SDS011;9099;47.958;11.366;2022-08-14T08:53:22;1.65;;;1.55;;
17947;SDS011;9099;47.958;11.366;2022-08-14T08:55:55;1.80;;;1.38;;
17947;SDS011;9099;47.958;11.366;2022-08-14T08:58:24;1.45;;;1.45;;
17947;SDS011;9099;47.958;11.366;2022-08-14T09:00:52;1.73;;;1.55;;
17947;SDS011;9099;47.958;11.366;2022-08-14T09:03:22;1.48;;;1.48;;
17947;SDS011;9099;47.958;11.366;2022-08-14T09:05:52;1.67;;;1.58;;
17947;SDS011;9099;47.958;11.366;2022-08-14T09:08:21;1.55;;;1.48;;
17947;SDS011;9099;47.958;11.366;2022-08-14T09:10:50;1.52;;;1.42;;
17947;SDS011;9099;47.958;11.366;2022-08-14T09:13:17;3.95;;;1.50;;
17947;SDS011;9099;47.958;11.366;2022-08-14T09:15:48;1.45;;;1.40;;
17947;SDS011;9099;47.958;11.366;2022-08-14T09:18:16;1.60;;;1.50;;
17947;SDS011;9099;47.958;11.366;2022-08-14T09:20:44;1.98;;;1.45;;
17947;SDS011;9099;47.958;11.366;2022-08-14T09:23:12;1.52;;;1.50;;
17947;SDS011;9099;47.958;11.366;2022-08-14T09:25:41;2.85;;;1.30;;
17947;SDS011;9099;47.958;11.366;2022-08-14T09:28:09;1.30;;;1.30;;
17947;SDS011;9099;47.958;11.366;2022-08-14T09:30:39;1.73;;;1.60;;
17947;SDS011;9099;47.958;11.366;2022-08-14T09:33:19;1.70;;;1.60;;
17947;SDS011;9099;47.958;11.366;2022-08-14T09:36:05;2.22;;;1.40;;
17947;SDS011;9099;47.958;11.366;2022-08-14T09:38:53;1.50;;;1.50;;
17947;SDS011;9099;47.958;11.366;2022-08-14T09:41:32;1.60;;;1.50;;
17947;SDS011;9099;47.958;11.366;2022-08-14T09:44:08;1.63;;;1.58;;
17947;SDS011;9099;47.958;11.366;2022-08-14T09:46:50;1.90;;;1.80;;
17947;SDS011;9099;47.958;11.366;2022-08-14T09:49:28;1.50;;;1.50;;
17947;SDS011;9099;47.958;11.366;2022-08-14T09:52:02;4.40;;;2.55;;
17947;SDS011;9099;47.958;11.366;2022-08-14T09:54:38;1.92;;;1.60;;
17947;SDS011;9099;47.958;11.366;2022-08-14T09:57:07;1.75;;;1.65;;
17947;SDS011;9099;47.958;11.366;2022-08-14T09:59:42;1.70;;;1.60;;
17947;SDS011;9099;47.958;11.366;2022-08-14T10:02:17;1.25;;;1.20;;
17947;SDS011;9099;47.958;11.366;2022-08-14T10:04:57;1.25;;;1.25;;
17947;SDS011;9099;47.958;11.366;2022-08-14T10:07:29;1.40;;;1.40;;
17947;SDS011;9099;47.958;11.366;2022-08-14T10:09:57;1.58;;;1.45;;
17947;SDS011;9099;47.958;11.366;2022-08-14T10:12:25;1.60;;;1.50;;
17947;SDS011;9099;47.958;11.366;2022-08-14T10:14:54;1.42;;;1.33;;
17947;SDS011;9099;47.958;11.366;2022-08-14T10:17:21;1.55;;;1.55;;
17947;SDS011;9099;47.958;11.366;2022-08-14T10:19:52;2.30;;;1.65;;
17947;SDS011;9099;47.958;11.366;2022-08-14T10:22:23;1.70;;;1.70;;
17947;SDS011;9099;47.958;11.366;2022-08-14T10:24:57;1.73;;;1.70;;
17947;SDS011;9099;47.958;11.366;2022-08-14T10:27:34;1.58;;;1.48;;
17947;SDS011;9099;47.958;11.366;2022-08-14T10:30:01;2.25;;;1.70;;
17947;SDS011;9099;47.958;11.366;2022-08-14T10:32:29;1.90;;;1.80;;
17947;SDS011;9099;47.958;11.366;2022-08-14T10:35:07;1.60;;;1.60;;
17947;SDS011;9099;47.958;11.366;2022-08-14T10:37:36;1.70;;;1.60;;
17947;SDS011;9099;47.958;11.366;2022-08-14T10:40:05;1.70;;;1.70;;
17947;SDS011;9099;47.958;11.366;2022-08-14T10:42:33;1.60;;;1.60;;
17947;SDS011;9099;47.958;11.366;2022-08-14T10:45:02;1.75;;;1.65;;
17947;SDS011;9099;47.958;11.366;2022-08-14T10:47:33;1.50;;;1.50;;
17947;SDS011;9099;47.958;11.366;2022-08-14T10:50:00;1.40;;;1.40;;
17947;SDS011;9099;47.958;11.366;2022-08-14T10:52:29;1.55;;;1.50;;
17947;SDS011;9099;47.958;11.366;2022-08-14T10:55:04;2.95;;;1.30;;
17947;SDS011;9099;47.958;11.366;2022-08-14T10:57:33;1.38;;;1.38;;
17947;SDS011;9099;47.958;11.366;2022-08-14T11:00:01;1.30;;;1.30;;
17947;SDS011;9099;47.958;11.366;2022-08-14T11:02:38;1.33;;;1.30;;
17947;SDS011;9099;47.958;11.366;2022-08-14T11:05:07;1.70;;;1.30;;
17947;SDS011;9099;47.958;11.366;2022-08-14T11:07:38;1.30;;;1.30;;
17947;SDS011;9099;47.958;11.366;2022-08-14T11:10:08;1.70;;;1.60;;
17947;SDS011;9099;47.958;11.366;2022-08-14T11:12:41;1.33;;;1.33;;
17947;SDS011;9099;47.958;11.366;2022-08-14T11:15:13;1.70;;;1.60;;
17947;SDS011;9099;47.958;11.366;2022-08-14T11:17:42;1.38;;;1.38;;
17947;SDS011;9099;47.958;11.366;2022-08-14T11:20:11;1.40;;;1.40;;
17947;SDS011;9099;47.958;11.366;2022-08-14T11:22:41;1.20;;;1.20;;
17947;SDS011;9099;47.958;11.366;2022-08-14T11:25:09;1.50;;;1.40;;
17947;SDS011;9099;47.958;11.366;2022-08-14T11:27:39;1.65;;;1.35;;
17947;SDS011;9099;47.958;11.366;2022-08-14T11:30:08;1.75;;;1.65;;
17947;SDS011;9099;47.958;11.366;2022-08-14T11:32:38;1.50;;;1.40;;
17947;SDS011;9099;47.958;11.366;2022-08-14T11:35:10;1.42;;;1.42;;
17947;SDS011;9099;47.958;11.366;2022-08-14T11:37:48;1.35;;;1.35;;
17947;SDS011;9099;47.958;11.366;2022-08-14T11:40:19;1.90;;;1.80;;
17947;SDS011;9099;47.958;11.366;2022-08-14T11:42:49;1.75;;;1.65;;
17947;SDS011;9099;47.958;11.366;2022-08-14T11:45:18;5.15;;;1.60;;
17947;SDS011;9099;47.958;11.366;2022-08-14T11:47:45;1.70;;;1.65;;
17947;SDS011;9099;47.958;11.366;2022-08-14T11:50:12;2.35;;;1.50;;
17947;SDS011;9099;47.958;11.366;2022-08-14T11:52:43;1.70;;;1.60;;
17947;SDS011;9099;47.958;11.366;2022-08-14T11:55:12;3.83;;;1.40;;
17947;SDS011;9099;47.958;11.366;2022-08-14T11:57:40;1.58;;;1.48;;
17947;SDS011;9099;47.958;11.366;2022-08-14T12:00:09;1.40;;;1.40;;
17947;SDS011;9099;47.958;11.366;2022-08-14T12:02:48;2.03;;;1.60;;
17947;SDS011;9099;47.958;11.366;2022-08-14T12:05:17;1.58;;;1.50;;
17947;SDS011;9099;47.958;11.366;2022-08-14T12:07:55;1.70;;;1.50;;
17947;SDS011;9099;47.958;11.366;2022-08-14T12:10:23;1.52;;;1.42;;
17947;SDS011;9099;47.958;11.366;2022-08-14T12:12:51;1.73;;;1.50;;
17947;SDS011;9099;47.958;11.366;2022-08-14T12:18:06;1.58;;;1.42;;
17947;SDS011;9099;47.958;11.366;2022-08-14T12:20:34;1.30;;;1.20;;
17947;SDS011;9099;47.958;11.366;2022-08-14T12:23:03;1.50;;;1.40;;
17947;SDS011;9099;47.958;11.366;2022-08-14T12:25:33;1.30;;;1.30;;
17947;SDS011;9099;47.958;11.366;2022-08-14T12:28:01;1.40;;;1.40;;
17947;SDS011;9099;47.958;11.366;2022-08-14T12:30:33;1.45;;;1.42;;
17947;SDS011;9099;47.958;11.366;2022-08-14T12:33:02;1.55;;;1.45;;
17947;SDS011;9099;47.958;11.366;2022-08-14T12:35:38;1.25;;;1.25;;
17947;SDS011;9099;47.958;11.366;2022-08-14T12:38:07;1.50;;;1.40;;
17947;SDS011;9099;47.958;11.366;2022-08-14T12:40:45;1.70;;;1.70;;
17947;SDS011;9099;47.958;11.366;2022-08-14T12:43:13;1.42;;;1.42;;
17947;SDS011;9099;47.958;11.366;2022-08-14T12:45:45;1.50;;;1.40;;
17947;SDS011;9099;47.958;11.366;2022-08-14T12:48:14;1.27;;;1.27;;
17947;SDS011;9099;47.958;11.366;2022-08-14T12:50:43;1.20;;;1.20;;
17947;SDS011;9099;47.958;11.366;2022-08-14T12:53:10;1.15;;;1.13;;
17947;SDS011;9099;47.958;11.366;2022-08-14T12:55:38;1.25;;;1.25;;
17947;SDS011;9099;47.958;11.366;2022-08-14T12:58:08;1.20;;;1.20;;
17947;SDS011;9099;47.958;11.366;2022-08-14T13:00:36;1.63;;;1.20;;
17947;SDS011;9099;47.958;11.366;2022-08-14T13:03:04;1.30;;;1.30;;
17947;SDS011;9099;47.958;11.366;2022-08-14T13:05:32;1.30;;;1.30;;
17947;SDS011;9099;47.958;11.366;2022-08-14T13:08:03;1.38;;;1.35;;
17947;SDS011;9099;47.958;11.366;2022-08-14T13:10:31;1.55;;;1.45;;
17947;SDS011;9099;47.958;11.366;2022-08-14T13:13:00;1.40;;;1.40;;
17947;SDS011;9099;47.958;11.366;2022-08-14T13:15:28;1.50;;;1.40;;
17947;SDS011;9099;47.958;11.366;2022-08-14T13:17:56;1.52;;;1.52;;
17947;SDS011;9099;47.958;11.366;2022-08-14T13:20:25;1.58;;;1.48;;
17947;SDS011;9099;47.958;11.366;2022-08-14T13:22:53;1.75;;;1.65;;
17947;SDS011;9099;47.958;11.366;2022-08-14T13:25:22;1.67;;;1.58;;
17947;SDS011;9099;47.958;11.366;2022-08-14T13:27:51;1.33;;;1.33;;
17947;SDS011;9099;47.958;11.366;2022-08-14T13:30:21;1.50;;;1.40;;
17947;SDS011;9099;47.958;11.366;2022-08-14T13:32:51;1.48;;;1.38;;
17947;SDS011;9099;47.958;11.366;2022-08-14T13:35:20;1.50;;;1.42;;
17947;SDS011;9099;47.958;11.366;2022-08-14T13:37:47;1.40;;;1.40;;
17947;SDS011;9099;47.958;11.366;2022-08-14T13:40:16;1.30;;;1.30;;
17947;SDS011;9099;47.958;11.366;2022-08-14T13:42:45;1.50;;;1.40;;
17947;SDS011;9099;47.958;11.366;2022-08-14T13:45:15;1.42;;;1.42;;
17947;SDS011;9099;47.958;11.366;2022-08-14T13:47:44;1.55;;;1.40;;
17947;SDS011;9099;47.958;11.366;2022-08-14T13:50:12;1.38;;;1.27;;
17947;SDS011;9099;47.958;11.366;2022-08-14T13:52:42;1.77;;;1.42;;
17947;SDS011;9099;47.958;11.366;2022-08-14T13:55:10;1.50;;;1.40;;
17947;SDS011;9099;47.958;11.366;2022-08-14T13:57:39;1.38;;;1.30;;
17947;SDS011;9099;47.958;11.366;2022-08-14T14:00:08;1.75;;;1.63;;
17947;SDS011;9099;47.958;11.366;2022-08-14T14:02:37;1.63;;;1.60;;
17947;SDS011;9099;47.958;11.366;2022-08-14T14:05:06;1.40;;;1.40;;
17947;SDS011;9099;47.958;11.366;2022-08-14T14:07:35;1.55;;;1.55;;
17947;SDS011;9099;47.958;11.366;2022-08-14T14:10:04;1.50;;;1.50;;
17947;SDS011;9099;47.958;11.366;2022-08-14T14:12:33;1.60;;;1.40;;
17947;SDS011;9099;47.958;11.366;2022-08-14T14:15:03;1.33;;;1.33;;
17947;SDS011;9099;47.958;11.366;2022-08-14T14:17:32;1.52;;;1.42;;
17947;SDS011;9099;47.958;11.366;2022-08-14T14:20:02;1.77;;;1.67;;
17947;SDS011;9099;47.958;11.366;2022-08-14T14:22:30;1.58;;;1.30;;
17947;SDS011;9099;47.958;11.366;2022-08-14T14:24:58;1.63;;;1.52;;
17947;SDS011;9099;47.958;11.366;2022-08-14T14:27:26;1.45;;;1.42;;
17947;SDS011;9099;47.958;11.366;2022-08-14T14:29:56;1.60;;;1.50;;
17947;SDS011;9099;47.958;11.366;2022-08-14T14:32:26;1.58;;;1.48;;
17947;SDS011;9099;47.958;11.366;2022-08-14T14:34:56;1.60;;;1.50;;
17947;SDS011;9099;47.958;11.366;2022-08-14T14:37:26;1.40;;;1.40;;
17947;SDS011;9099;47.958;11.366;2022-08-14T14:39:54;1.35;;;1.25;;
17947;SDS011;9099;47.958;11.366;2022-08-14T14:42:27;1.67;;;1.58;;
17947;SDS011;9099;47.958;11.366;2022-08-14T14:44:59;1.70;;;1.60;;
17947;SDS011;9099;47.958;11.366;2022-08-14T14:47:29;1.48;;;1.38;;
17947;SDS011;9099;47.958;11.366;2022-08-14T14:49:59;1.42;;;1.33;;
17947;SDS011;9099;47.958;11.366;2022-08-14T14:52:28;1.40;;;1.40;;
17947;SDS011;9099;47.958;11.366;2022-08-14T14:54:59;1.45;;;1.40;;
17947;SDS011;9099;47.958;11.366;2022-08-14T14:57:27;1.45;;;1.35;;
17947;SDS011;9099;47.958;11.366;2022-08-14T14:59:55;1.40;;;1.40;;
17947;SDS011;9099;47.958;11.366;2022-08-14T15:02:29;1.33;;;1.20;;
17947;SDS011;9099;47.958;11.366;2022-08-14T15:04:59;1.30;;;1.30;;
17947;SDS011;9099;47.958;11.366;2022-08-14T15:07:26;1.45;;;1.35;;